createdAt,value
2022-07-25T00:05:17.215Z,12.420290
2022-07-25T00:10:17.220Z,12.297778
2022-07-25T00:15:17.327Z,12.259259
2022-07-25T00:20:17.509Z,12.275463
2022-07-25T00:25:17.525Z,12.266204
2022-07-25T00:30:17.234Z,12.148148
2022-07-25T00:35:17.254Z,12.155093
2022-07-25T00:40:17.350Z,12.094907
2022-07-25T00:45:17.261Z,12.053333
2022-07-25T00:50:17.237Z,11.974537
2022-07-25T00:55:17.227Z,11.939815
2022-07-25T01:00:17.271Z,11.937500
2022-07-25T01:05:17.457Z,11.988426
2022-07-25T01:10:17.322Z,12.025463
2022-07-25T01:15:17.609Z,11.932870
2022-07-25T01:20:17.620Z,11.902778
2022-07-25T01:25:17.473Z,11.893519
2022-07-25T01:30:17.473Z,11.798611
2022-07-25T01:35:17.281Z,11.743056
2022-07-25T01:40:17.179Z,11.726667
2022-07-25T01:45:17.243Z,11.634259
2022-07-25T01:50:17.287Z,11.648148
2022-07-25T01:55:17.322Z,11.601852
2022-07-25T02:00:17.257Z,11.541667
2022-07-25T02:05:17.196Z,11.467593
2022-07-25T02:10:17.264Z,11.576389
2022-07-25T02:15:17.227Z,11.584444
2022-07-25T02:20:17.191Z,11.486111
2022-07-25T02:25:17.206Z,11.460648
2022-07-25T02:30:17.325Z,11.351852
2022-07-25T02:35:17.197Z,11.361111
2022-07-25T02:40:17.261Z,11.280093
2022-07-25T02:45:17.282Z,11.270833
2022-07-25T02:50:17.402Z,11.245370
2022-07-25T02:55:17.231Z,11.159722
2022-07-25T03:00:17.227Z,11.166667
2022-07-25T03:05:17.204Z,11.206019
2022-07-25T03:10:17.268Z,11.233796
2022-07-25T03:15:17.305Z,11.263889
2022-07-25T03:20:17.203Z,11.233796
2022-07-25T03:25:21.857Z,11.217593
2022-07-25T03:30:17.319Z,11.173611
2022-07-25T03:35:17.153Z,11.129630
2022-07-25T03:40:17.162Z,11.164352
2022-07-25T03:45:17.376Z,11.307870
2022-07-25T03:50:17.612Z,11.405093
2022-07-25T03:55:17.620Z,11.509259
2022-07-25T04:00:17.560Z,11.578704
2022-07-25T04:05:17.665Z,11.710648
2022-07-25T04:10:17.263Z,11.807870
2022-07-25T04:15:17.162Z,12.053241
2022-07-25T04:20:17.190Z,12.379630
2022-07-25T04:25:17.260Z,12.652778
2022-07-25T04:30:23.868Z,12.928241
2022-07-25T04:35:17.167Z,13.171296
2022-07-25T04:40:17.220Z,13.432870
2022-07-25T04:45:17.545Z,13.689815
2022-07-25T04:50:18.803Z,13.981481
2022-07-25T04:55:17.202Z,14.233796
2022-07-25T05:00:17.225Z,14.546296
2022-07-25T05:05:21.718Z,14.912037
2022-07-25T05:10:17.327Z,15.256944
2022-07-25T05:15:17.235Z,15.719907
2022-07-25T05:20:17.198Z,16.099537
2022-07-25T05:25:17.221Z,16.571759
2022-07-25T05:30:17.394Z,17.115741
2022-07-25T05:35:17.392Z,17.525463
2022-07-25T05:40:17.465Z,18.027778
2022-07-25T05:45:17.543Z,18.486111
2022-07-25T05:50:17.807Z,18.907407
2022-07-25T05:55:17.152Z,19.546296
2022-07-25T06:00:17.154Z,20.203704
2022-07-25T06:05:17.369Z,21.018519
2022-07-25T06:10:17.230Z,21.657407
2022-07-25T06:15:22.138Z,22.361111
2022-07-25T06:20:17.137Z,23.071759
2022-07-25T06:25:17.122Z,23.803241
2022-07-25T06:30:20.060Z,24.715278
2022-07-25T06:35:17.149Z,25.418981
2022-07-25T06:40:17.100Z,25.942130
2022-07-25T06:45:17.144Z,26.303241
2022-07-25T06:50:17.206Z,26.689815
2022-07-25T06:55:17.187Z,26.918981
2022-07-25T07:00:17.106Z,27.284722
2022-07-25T07:05:17.145Z,27.474537
2022-07-25T07:10:17.590Z,27.581019
2022-07-25T07:15:17.470Z,27.745370
2022-07-25T07:20:17.715Z,27.932870
2022-07-25T07:25:17.416Z,28.166667
2022-07-25T07:30:22.248Z,28.373333
2022-07-25T07:35:17.119Z,28.652778
2022-07-25T07:40:18.144Z,28.780093
2022-07-25T07:45:17.104Z,29.011574
2022-07-25T07:50:17.204Z,29.331019
2022-07-25T07:55:17.240Z,29.459064
2022-07-25T08:00:17.139Z,29.518519
2022-07-25T08:05:17.130Z,29.560185
2022-07-25T08:10:17.327Z,29.641204
2022-07-25T08:15:17.177Z,29.953704
2022-07-25T08:20:36.741Z,30.173611
2022-07-25T08:25:17.118Z,30.043981
2022-07-25T08:30:17.186Z,30.289352
2022-07-25T08:35:17.334Z,30.842593
2022-07-25T08:40:17.371Z,30.993333
2022-07-25T08:45:17.108Z,30.710648
2022-07-25T08:50:17.222Z,30.796296
2022-07-25T08:55:17.129Z,30.956019
2022-07-25T09:00:17.219Z,31.060185
2022-07-25T09:05:17.106Z,31.402778
2022-07-25T09:10:17.169Z,31.664352
2022-07-25T09:15:17.133Z,31.831019
2022-07-25T09:20:18.629Z,31.717593
2022-07-25T09:25:17.498Z,31.631944
2022-07-25T09:30:17.099Z,31.592593
2022-07-25T09:35:17.367Z,31.682870
2022-07-25T09:40:17.525Z,31.317130
2022-07-25T09:45:17.082Z,31.555556
2022-07-25T09:50:17.286Z,31.668981
2022-07-25T09:55:17.089Z,31.567130
2022-07-25T10:00:19.502Z,32.252315
2022-07-25T10:05:17.268Z,32.430556
2022-07-25T10:10:17.162Z,32.520833
2022-07-25T10:15:17.114Z,32.506944
2022-07-25T10:20:17.162Z,32.692130
2022-07-25T10:25:17.045Z,32.821759
2022-07-25T10:30:17.116Z,32.791667
2022-07-25T10:35:17.124Z,32.703704
2022-07-25T10:40:17.193Z,32.813333
2022-07-25T10:45:17.118Z,33.120370
2022-07-25T10:50:29.792Z,32.981481
2022-07-25T10:55:17.239Z,32.960648
2022-07-25T11:00:17.155Z,32.965278
2022-07-25T11:05:17.418Z,32.863426
2022-07-25T11:10:17.456Z,33.083333
2022-07-25T11:15:17.447Z,33.206019
2022-07-25T11:20:17.380Z,33.298611
2022-07-25T11:25:17.425Z,33.652778
2022-07-25T11:30:17.196Z,33.925926
2022-07-25T11:35:17.108Z,33.636574
2022-07-25T11:40:17.260Z,33.719907
2022-07-25T11:45:17.080Z,33.620370
2022-07-25T11:50:17.172Z,33.569444
2022-07-25T11:55:17.127Z,33.861111
2022-07-25T12:00:17.075Z,34.074074
2022-07-25T12:05:17.136Z,34.590278
2022-07-25T12:10:17.100Z,34.254630
2022-07-25T12:15:17.115Z,34.432870
2022-07-25T12:20:17.178Z,34.784722
2022-07-25T12:25:17.067Z,34.451389
2022-07-25T12:30:17.057Z,33.879630
2022-07-25T12:35:17.205Z,33.655093
2022-07-25T12:40:17.092Z,33.590278
2022-07-25T12:45:17.044Z,34.384259
2022-07-25T12:50:17.429Z,34.918981
2022-07-25T12:55:17.373Z,34.513889
2022-07-25T13:00:17.242Z,34.173611
2022-07-25T13:05:17.371Z,34.444444
2022-07-25T13:10:17.419Z,35.402778
2022-07-25T13:15:17.034Z,34.483796
2022-07-25T13:20:17.125Z,34.303241
2022-07-25T13:25:17.034Z,34.321759
2022-07-25T13:30:17.126Z,34.253333
2022-07-25T13:35:20.449Z,34.171296
2022-07-25T13:40:17.053Z,35.085648
2022-07-25T13:45:17.017Z,35.229167
2022-07-25T13:50:17.151Z,35.243056
2022-07-25T13:55:17.038Z,34.925926
2022-07-25T14:00:17.232Z,34.557870
2022-07-25T14:05:17.060Z,34.414352
2022-07-25T14:10:17.082Z,34.358796
2022-07-25T14:15:17.026Z,34.298611
2022-07-25T14:20:17.010Z,34.259259
2022-07-25T14:25:16.996Z,34.715278
2022-07-25T14:30:17.098Z,34.940000
2022-07-25T14:35:17.075Z,33.861111
2022-07-25T14:40:17.336Z,33.358796
2022-07-25T14:45:17.401Z,33.921296
2022-07-25T14:50:17.371Z,33.789352
2022-07-25T14:55:17.027Z,33.840278
2022-07-25T15:00:17.066Z,34.233333
2022-07-25T15:05:17.210Z,33.835648
2022-07-25T15:10:17.071Z,33.446759
2022-07-25T15:15:17.051Z,33.087963
2022-07-25T15:20:17.195Z,33.442130
2022-07-25T15:25:58.059Z,34.618056
2022-07-25T15:30:17.109Z,35.273148
2022-07-25T15:35:17.046Z,34.697778
2022-07-25T15:40:17.089Z,34.131944
2022-07-25T15:45:32.621Z,34.743056
2022-07-25T15:50:17.063Z,34.856481
2022-07-25T15:55:17.086Z,34.009259
2022-07-25T16:00:17.001Z,33.678241
2022-07-25T16:05:16.935Z,33.773148
2022-07-25T16:10:17.055Z,33.412037
2022-07-25T16:15:17.015Z,32.979167
2022-07-25T16:20:17.020Z,33.092593
2022-07-25T16:25:17.343Z,33.451389
2022-07-25T16:30:17.027Z,33.270833
2022-07-25T16:35:17.517Z,33.192130
2022-07-25T16:40:16.993Z,33.252315
2022-07-25T16:45:17.404Z,33.245370
2022-07-25T16:50:17.059Z,32.773148
2022-07-25T16:55:17.050Z,32.537037
2022-07-25T17:00:17.018Z,32.248889
2022-07-25T17:05:17.198Z,32.152778
2022-07-25T17:10:17.034Z,31.847222
2022-07-25T17:15:17.064Z,31.357778
2022-07-25T17:20:17.233Z,31.245370
2022-07-25T17:25:16.963Z,30.620370
2022-07-25T17:30:17.033Z,29.215278
2022-07-25T17:35:17.036Z,28.129630
2022-07-25T17:40:16.976Z,27.020833
2022-07-25T17:45:17.018Z,25.543981
2022-07-25T17:50:17.147Z,24.093333
2022-07-25T17:55:17.024Z,22.886574
2022-07-25T18:00:17.070Z,22.192130
2022-07-25T18:05:16.988Z,21.824074
2022-07-25T18:10:17.001Z,21.706019
2022-07-25T18:15:16.952Z,21.585648
2022-07-25T18:20:16.973Z,21.416667
2022-07-25T18:25:17.094Z,21.331019
2022-07-25T18:30:17.016Z,21.347222
2022-07-25T18:35:17.304Z,21.368056
2022-07-25T18:40:17.522Z,21.261574
2022-07-25T18:45:17.165Z,21.141204
2022-07-25T18:50:16.966Z,21.134259
2022-07-25T18:55:16.943Z,21.039352
2022-07-25T19:00:16.994Z,21.081019
2022-07-25T19:05:17.101Z,21.166667
2022-07-25T19:10:17.102Z,21.124444
2022-07-25T19:15:16.984Z,21.000000
2022-07-25T19:20:16.983Z,20.858796
2022-07-25T19:25:16.929Z,20.897778
2022-07-25T19:30:17.649Z,20.886574
2022-07-25T19:35:17.000Z,20.932870
2022-07-25T19:40:16.955Z,20.935185
2022-07-25T19:45:16.979Z,20.912037
2022-07-25T19:50:17.051Z,20.803241
2022-07-25T19:55:17.017Z,20.668981
2022-07-25T20:00:16.979Z,20.525463
2022-07-25T20:05:17.207Z,20.368889
2022-07-25T20:10:17.853Z,20.263889
2022-07-25T20:15:16.966Z,20.083333
2022-07-25T20:20:17.074Z,19.946759
2022-07-25T20:25:16.991Z,19.819444
2022-07-25T20:30:17.201Z,19.699074
2022-07-25T20:35:17.059Z,19.613333
2022-07-25T20:40:17.274Z,19.675926
2022-07-25T20:45:17.056Z,19.726852
2022-07-25T20:50:17.009Z,19.717593
2022-07-25T20:55:17.357Z,19.719907
2022-07-25T21:00:17.313Z,19.701389
2022-07-25T21:05:16.944Z,19.706019
2022-07-25T21:10:17.292Z,19.703704
2022-07-25T21:15:17.125Z,19.780093
2022-07-25T21:20:17.498Z,19.682870
2022-07-25T21:25:16.974Z,19.659722
2022-07-25T21:30:17.020Z,19.574074
2022-07-25T21:35:16.952Z,19.530093
2022-07-25T21:40:17.051Z,19.546296
2022-07-25T21:45:17.023Z,19.460648
2022-07-25T21:50:17.619Z,19.553241
2022-07-25T21:55:17.127Z,19.680556
2022-07-25T22:00:16.950Z,20.094907
2022-07-25T22:05:17.125Z,20.636574
2022-07-25T22:10:16.950Z,20.974537
2022-07-25T22:15:16.869Z,21.162037
2022-07-25T22:20:16.948Z,21.201389
2022-07-25T22:25:16.943Z,21.256944
2022-07-25T22:30:19.451Z,21.237778
2022-07-25T22:35:17.106Z,21.182870
2022-07-25T22:40:16.964Z,21.143519
2022-07-25T22:45:16.902Z,20.997685
2022-07-25T22:50:17.014Z,20.844907
2022-07-25T22:55:17.005Z,20.777778
2022-07-25T23:00:17.292Z,20.706019
2022-07-25T23:05:17.145Z,20.682870
2022-07-25T23:10:17.919Z,20.625000
2022-07-25T23:15:16.949Z,20.569444
2022-07-25T23:20:16.943Z,20.486111
2022-07-25T23:25:16.889Z,20.409722
2022-07-25T23:30:16.985Z,20.333333
2022-07-25T23:35:17.097Z,20.319444
2022-07-25T23:40:16.900Z,20.266204
2022-07-25T23:45:16.998Z,20.222222
2022-07-25T23:50:16.988Z,20.247685
2022-07-25T23:55:16.911Z,20.282407
